sensor_id;sensor_type;location;lat;lon;timestamp;temperature;humidity
17452;DHT22;8843;48.838;9.324;2022-07-23T00:01:32;25.80;60.20
17452;DHT22;8843;48.838;9.324;2022-07-23T00:03:59;25.70;60.00
17452;DHT22;8843;48.838;9.324;2022-07-23T00:06:26;25.80;59.70
17452;DHT22;8843;48.838;9.324;2022-07-23T00:08:53;25.70;59.50
17452;DHT22;8843;48.838;9.324;2022-07-23T00:11:20;25.70;59.50
17452;DHT22;8843;48.838;9.324;2022-07-23T00:13:48;25.70;59.50
17452;DHT22;8843;48.838;9.324;2022-07-23T00:16:15;25.70;59.50
17452;DHT22;8843;48.838;9.324;2022-07-23T00:18:43;25.70;59.40
17452;DHT22;8843;48.838;9.324;2022-07-23T00:21:10;25.70;59.50
17452;DHT22;8843;48.838;9.324;2022-07-23T00:23:37;25.70;59.60
17452;DHT22;8843;48.838;9.324;2022-07-23T00:26:04;25.70;59.90
17452;DHT22;8843;48.838;9.324;2022-07-23T00:28:33;25.70;60.30
17452;DHT22;8843;48.838;9.324;2022-07-23T00:31:00;25.70;59.40
17452;DHT22;8843;48.838;9.324;2022-07-23T00:33:27;25.70;59.00
17452;DHT22;8843;48.838;9.324;2022-07-23T00:35:55;25.70;59.60
17452;DHT22;8843;48.838;9.324;2022-07-23T00:38:22;25.70;59.20
17452;DHT22;8843;48.838;9.324;2022-07-23T00:40:49;25.70;58.80
17452;DHT22;8843;48.838;9.324;2022-07-23T00:43:16;25.70;58.70
17452;DHT22;8843;48.838;9.324;2022-07-23T00:45:43;25.60;58.80
17452;DHT22;8843;48.838;9.324;2022-07-23T00:48:10;25.60;58.50
17452;DHT22;8843;48.838;9.324;2022-07-23T00:50:37;25.60;59.00
17452;DHT22;8843;48.838;9.324;2022-07-23T00:53:05;25.60;58.60
17452;DHT22;8843;48.838;9.324;2022-07-23T00:55:34;25.60;59.30
17452;DHT22;8843;48.838;9.324;2022-07-23T00:58:01;25.60;60.10
17452;DHT22;8843;48.838;9.324;2022-07-23T01:00:29;25.60;60.10
17452;DHT22;8843;48.838;9.324;2022-07-23T01:02:56;25.60;60.70
17452;DHT22;8843;48.838;9.324;2022-07-23T01:05:23;25.60;60.80
17452;DHT22;8843;48.838;9.324;2022-07-23T01:07:50;25.60;60.70
17452;DHT22;8843;48.838;9.324;2022-07-23T01:10:19;25.70;60.80
17452;DHT22;8843;48.838;9.324;2022-07-23T01:12:59;25.60;60.70
17452;DHT22;8843;48.838;9.324;2022-07-23T01:15:26;25.60;61.10
17452;DHT22;8843;48.838;9.324;2022-07-23T01:17:53;25.60;60.70
17452;DHT22;8843;48.838;9.324;2022-07-23T01:20:20;25.60;60.80
17452;DHT22;8843;48.838;9.324;2022-07-23T01:22:49;25.50;61.00
17452;DHT22;8843;48.838;9.324;2022-07-23T01:25:16;25.50;60.50
17452;DHT22;8843;48.838;9.324;2022-07-23T01:27:43;25.50;60.50
17452;DHT22;8843;48.838;9.324;2022-07-23T01:30:11;25.50;61.50
17452;DHT22;8843;48.838;9.324;2022-07-23T01:32:38;25.50;60.00
17452;DHT22;8843;48.838;9.324;2022-07-23T01:35:06;25.50;60.60
17452;DHT22;8843;48.838;9.324;2022-07-23T01:37:34;25.50;60.60
17452;DHT22;8843;48.838;9.324;2022-07-23T01:40:02;25.50;59.80
17452;DHT22;8843;48.838;9.324;2022-07-23T01:42:30;25.50;59.80
17452;DHT22;8843;48.838;9.324;2022-07-23T01:44:57;25.50;59.70
17452;DHT22;8843;48.838;9.324;2022-07-23T01:47:24;25.50;59.50
17452;DHT22;8843;48.838;9.324;2022-07-23T01:49:51;25.50;59.70
17452;DHT22;8843;48.838;9.324;2022-07-23T01:52:18;25.50;60.00
17452;DHT22;8843;48.838;9.324;2022-07-23T01:54:45;25.50;59.10
17452;DHT22;8843;48.838;9.324;2022-07-23T01:57:13;25.50;59.50
17452;DHT22;8843;48.838;9.324;2022-07-23T01:59:40;25.50;59.20
17452;DHT22;8843;48.838;9.324;2022-07-23T02:02:07;25.50;59.90
17452;DHT22;8843;48.838;9.324;2022-07-23T02:04:34;25.50;59.40
17452;DHT22;8843;48.838;9.324;2022-07-23T02:07:02;25.50;59.50
17452;DHT22;8843;48.838;9.324;2022-07-23T02:09:29;25.50;59.60
17452;DHT22;8843;48.838;9.324;2022-07-23T02:11:56;25.50;59.40
17452;DHT22;8843;48.838;9.324;2022-07-23T02:14:24;25.50;59.90
17452;DHT22;8843;48.838;9.324;2022-07-23T02:16:51;25.50;59.50
17452;DHT22;8843;48.838;9.324;2022-07-23T02:19:18;25.50;59.60
17452;DHT22;8843;48.838;9.324;2022-07-23T02:21:45;25.50;60.00
17452;DHT22;8843;48.838;9.324;2022-07-23T02:24:12;25.50;59.50
17452;DHT22;8843;48.838;9.324;2022-07-23T02:26:39;25.50;59.70
17452;DHT22;8843;48.838;9.324;2022-07-23T02:29:06;25.50;59.30
17452;DHT22;8843;48.838;9.324;2022-07-23T02:31:34;25.50;59.50
17452;DHT22;8843;48.838;9.324;2022-07-23T02:34:01;25.50;59.80
17452;DHT22;8843;48.838;9.324;2022-07-23T02:36:29;25.50;59.90
17452;DHT22;8843;48.838;9.324;2022-07-23T02:38:56;25.50;59.70
17452;DHT22;8843;48.838;9.324;2022-07-23T02:41:23;25.50;60.10
17452;DHT22;8843;48.838;9.324;2022-07-23T02:43:50;25.50;60.00
17452;DHT22;8843;48.838;9.324;2022-07-23T02:46:17;25.50;60.30
17452;DHT22;8843;48.838;9.324;2022-07-23T02:48:45;25.50;60.50
17452;DHT22;8843;48.838;9.324;2022-07-23T02:51:12;25.50;60.20
17452;DHT22;8843;48.838;9.324;2022-07-23T02:53:39;25.50;60.20
17452;DHT22;8843;48.838;9.324;2022-07-23T02:56:06;25.50;60.30
17452;DHT22;8843;48.838;9.324;2022-07-23T02:58:33;25.50;60.60
17452;DHT22;8843;48.838;9.324;2022-07-23T03:01:00;25.40;60.40
17452;DHT22;8843;48.838;9.324;2022-07-23T03:03:27;25.40;60.70
17452;DHT22;8843;48.838;9.324;2022-07-23T03:05:55;25.40;60.30
17452;DHT22;8843;48.838;9.324;2022-07-23T03:08:22;25.40;60.70
17452;DHT22;8843;48.838;9.324;2022-07-23T03:10:49;25.40;61.00
17452;DHT22;8843;48.838;9.324;2022-07-23T03:13:16;25.40;60.60
17452;DHT22;8843;48.838;9.324;2022-07-23T03:15:43;25.40;60.90
17452;DHT22;8843;48.838;9.324;2022-07-23T03:18:10;25.40;60.90
17452;DHT22;8843;48.838;9.324;2022-07-23T03:20:37;25.40;60.70
17452;DHT22;8843;48.838;9.324;2022-07-23T03:23:05;25.40;61.00
17452;DHT22;8843;48.838;9.324;2022-07-23T03:25:32;25.40;61.00
17452;DHT22;8843;48.838;9.324;2022-07-23T03:27:59;25.40;61.00
17452;DHT22;8843;48.838;9.324;2022-07-23T03:30:25;25.40;60.70
17452;DHT22;8843;48.838;9.324;2022-07-23T03:32:52;25.40;61.90
17452;DHT22;8843;48.838;9.324;2022-07-23T03:35:19;25.30;61.00
17452;DHT22;8843;48.838;9.324;2022-07-23T03:37:46;25.30;61.30
17452;DHT22;8843;48.838;9.324;2022-07-23T03:40:15;25.30;61.30
17452;DHT22;8843;48.838;9.324;2022-07-23T03:42:42;25.30;61.40
17452;DHT22;8843;48.838;9.324;2022-07-23T03:45:09;25.30;61.20
17452;DHT22;8843;48.838;9.324;2022-07-23T03:47:36;25.30;61.10
17452;DHT22;8843;48.838;9.324;2022-07-23T03:50:05;25.30;61.40
17452;DHT22;8843;48.838;9.324;2022-07-23T03:52:32;25.30;61.40
17452;DHT22;8843;48.838;9.324;2022-07-23T03:54:59;25.30;61.50
17452;DHT22;8843;48.838;9.324;2022-07-23T03:57:27;25.30;61.50
17452;DHT22;8843;48.838;9.324;2022-07-23T04:00:00;25.10;60.20
17452;DHT22;8843;48.838;9.324;2022-07-23T04:02:27;25.10;60.40
17452;DHT22;8843;48.838;9.324;2022-07-23T04:04:54;25.00;60.80
17452;DHT22;8843;48.838;9.324;2022-07-23T04:07:21;25.10;61.20
17452;DHT22;8843;48.838;9.324;2022-07-23T04:09:48;25.10;61.40
17452;DHT22;8843;48.838;9.324;2022-07-23T04:12:15;25.00;61.20
17452;DHT22;8843;48.838;9.324;2022-07-23T04:14:44;25.00;61.40
17452;DHT22;8843;48.838;9.324;2022-07-23T04:17:11;24.90;62.50
17452;DHT22;8843;48.838;9.324;2022-07-23T04:19:38;25.00;62.20
17452;DHT22;8843;48.838;9.324;2022-07-23T04:22:07;25.00;62.20
17452;DHT22;8843;48.838;9.324;2022-07-23T04:24:34;25.10;62.40
17452;DHT22;8843;48.838;9.324;2022-07-23T04:27:01;25.10;62.10
17452;DHT22;8843;48.838;9.324;2022-07-23T04:29:29;25.10;61.70
17452;DHT22;8843;48.838;9.324;2022-07-23T04:32:08;25.00;61.90
17452;DHT22;8843;48.838;9.324;2022-07-23T04:34:43;25.00;62.40
17452;DHT22;8843;48.838;9.324;2022-07-23T04:37:10;25.00;62.20
17452;DHT22;8843;48.838;9.324;2022-07-23T04:39:37;25.10;62.40
17452;DHT22;8843;48.838;9.324;2022-07-23T04:42:04;25.10;62.40
17452;DHT22;8843;48.838;9.324;2022-07-23T04:44:31;25.10;62.30
17452;DHT22;8843;48.838;9.324;2022-07-23T04:46:58;25.00;61.70
17452;DHT22;8843;48.838;9.324;2022-07-23T04:49:26;24.90;61.90
17452;DHT22;8843;48.838;9.324;2022-07-23T04:51:53;24.90;61.70
17452;DHT22;8843;48.838;9.324;2022-07-23T04:54:20;24.90;61.60
17452;DHT22;8843;48.838;9.324;2022-07-23T04:56:47;24.90;61.90
17452;DHT22;8843;48.838;9.324;2022-07-23T04:59:14;24.90;62.00
17452;DHT22;8843;48.838;9.324;2022-07-23T05:01:41;24.90;61.80
17452;DHT22;8843;48.838;9.324;2022-07-23T05:04:08;24.90;62.10
17452;DHT22;8843;48.838;9.324;2022-07-23T05:06:36;24.90;62.30
17452;DHT22;8843;48.838;9.324;2022-07-23T05:09:03;24.90;62.30
17452;DHT22;8843;48.838;9.324;2022-07-23T05:11:30;24.90;62.30
17452;DHT22;8843;48.838;9.324;2022-07-23T05:13:57;24.90;62.50
17452;DHT22;8843;48.838;9.324;2022-07-23T05:16:24;24.90;62.40
17452;DHT22;8843;48.838;9.324;2022-07-23T05:18:51;24.90;62.50
17452;DHT22;8843;48.838;9.324;2022-07-23T05:21:19;24.90;62.60
17452;DHT22;8843;48.838;9.324;2022-07-23T05:23:47;24.90;62.80
17452;DHT22;8843;48.838;9.324;2022-07-23T05:26:14;24.90;63.20
17452;DHT22;8843;48.838;9.324;2022-07-23T05:28:41;24.90;63.30
17452;DHT22;8843;48.838;9.324;2022-07-23T05:31:08;24.90;63.00
17452;DHT22;8843;48.838;9.324;2022-07-23T05:33:35;24.90;62.70
17452;DHT22;8843;48.838;9.324;2022-07-23T05:36:03;24.90;62.40
17452;DHT22;8843;48.838;9.324;2022-07-23T05:38:31;24.90;62.40
17452;DHT22;8843;48.838;9.324;2022-07-23T05:40:59;24.90;62.40
17452;DHT22;8843;48.838;9.324;2022-07-23T05:43:26;25.00;62.70
17452;DHT22;8843;48.838;9.324;2022-07-23T05:45:54;25.00;63.20
17452;DHT22;8843;48.838;9.324;2022-07-23T05:48:20;25.00;63.10
17452;DHT22;8843;48.838;9.324;2022-07-23T05:50:48;25.00;62.80
17452;DHT22;8843;48.838;9.324;2022-07-23T05:53:15;25.00;63.40
17452;DHT22;8843;48.838;9.324;2022-07-23T05:55:41;25.00;63.60
17452;DHT22;8843;48.838;9.324;2022-07-23T05:58:10;25.00;64.40
17452;DHT22;8843;48.838;9.324;2022-07-23T06:00:37;25.00;63.40
17452;DHT22;8843;48.838;9.324;2022-07-23T06:03:04;25.00;65.60
17452;DHT22;8843;48.838;9.324;2022-07-23T06:05:31;25.00;64.60
17452;DHT22;8843;48.838;9.324;2022-07-23T06:07:58;25.00;64.60
17452;DHT22;8843;48.838;9.324;2022-07-23T06:10:25;24.90;63.80
17452;DHT22;8843;48.838;9.324;2022-07-23T06:12:52;24.90;63.70
17452;DHT22;8843;48.838;9.324;2022-07-23T06:15:20;24.90;63.80
17452;DHT22;8843;48.838;9.324;2022-07-23T06:17:47;24.90;64.00
17452;DHT22;8843;48.838;9.324;2022-07-23T06:20:14;24.90;63.70
17452;DHT22;8843;48.838;9.324;2022-07-23T06:22:41;24.90;63.80
17452;DHT22;8843;48.838;9.324;2022-07-23T06:25:08;25.00;64.30
17452;DHT22;8843;48.838;9.324;2022-07-23T06:27:35;25.00;64.10
17452;DHT22;8843;48.838;9.324;2022-07-23T06:30:03;25.00;64.00
17452;DHT22;8843;48.838;9.324;2022-07-23T06:32:31;25.00;63.70
17452;DHT22;8843;48.838;9.324;2022-07-23T06:34:58;25.00;63.80
17452;DHT22;8843;48.838;9.324;2022-07-23T06:37:25;25.00;63.80
17452;DHT22;8843;48.838;9.324;2022-07-23T06:39:52;25.00;63.80
17452;DHT22;8843;48.838;9.324;2022-07-23T06:42:19;25.00;63.70
17452;DHT22;8843;48.838;9.324;2022-07-23T06:44:46;25.00;63.70
17452;DHT22;8843;48.838;9.324;2022-07-23T06:47:12;25.00;63.50
17452;DHT22;8843;48.838;9.324;2022-07-23T06:49:41;25.00;63.40
17452;DHT22;8843;48.838;9.324;2022-07-23T06:52:08;25.00;63.30
17452;DHT22;8843;48.838;9.324;2022-07-23T06:54:35;25.00;63.00
17452;DHT22;8843;48.838;9.324;2022-07-23T06:57:02;25.00;63.20
17452;DHT22;8843;48.838;9.324;2022-07-23T06:59:29;25.00;63.10
17452;DHT22;8843;48.838;9.324;2022-07-23T07:01:55;25.00;63.30
17452;DHT22;8843;48.838;9.324;2022-07-23T07:04:23;25.00;63.20
17452;DHT22;8843;48.838;9.324;2022-07-23T07:06:52;25.00;63.20
17452;DHT22;8843;48.838;9.324;2022-07-23T07:09:19;25.00;63.00
17452;DHT22;8843;48.838;9.324;2022-07-23T07:11:46;25.00;63.00
17452;DHT22;8843;48.838;9.324;2022-07-23T07:14:12;25.00;63.10
17452;DHT22;8843;48.838;9.324;2022-07-23T07:16:39;25.00;63.20
17452;DHT22;8843;48.838;9.324;2022-07-23T07:19:06;25.00;63.20
17452;DHT22;8843;48.838;9.324;2022-07-23T07:21:33;25.00;63.20
17452;DHT22;8843;48.838;9.324;2022-07-23T07:24:02;25.00;63.10
17452;DHT22;8843;48.838;9.324;2022-07-23T07:26:29;25.00;63.30
17452;DHT22;8843;48.838;9.324;2022-07-23T07:28:56;25.00;63.40
17452;DHT22;8843;48.838;9.324;2022-07-23T07:31:23;24.90;63.40
17452;DHT22;8843;48.838;9.324;2022-07-23T07:33:50;25.00;63.40
17452;DHT22;8843;48.838;9.324;2022-07-23T07:36:17;25.00;63.40
17452;DHT22;8843;48.838;9.324;2022-07-23T07:38:44;25.00;63.40
17452;DHT22;8843;48.838;9.324;2022-07-23T07:41:12;25.00;63.40
17452;DHT22;8843;48.838;9.324;2022-07-23T07:43:39;25.00;63.40
17452;DHT22;8843;48.838;9.324;2022-07-23T07:46:06;25.00;63.50
17452;DHT22;8843;48.838;9.324;2022-07-23T07:48:35;25.00;63.50
17452;DHT22;8843;48.838;9.324;2022-07-23T07:51:03;24.90;63.80
17452;DHT22;8843;48.838;9.324;2022-07-23T07:53:30;24.90;63.90
17452;DHT22;8843;48.838;9.324;2022-07-23T07:55:57;24.90;63.90
17452;DHT22;8843;48.838;9.324;2022-07-23T07:58:25;24.90;63.90
17452;DHT22;8843;48.838;9.324;2022-07-23T08:00:52;25.00;64.30
17452;DHT22;8843;48.838;9.324;2022-07-23T08:03:19;24.90;64.30
17452;DHT22;8843;48.838;9.324;2022-07-23T08:05:46;24.90;64.30
17452;DHT22;8843;48.838;9.324;2022-07-23T08:08:13;24.90;64.60
17452;DHT22;8843;48.838;9.324;2022-07-23T08:10:41;24.90;65.00
17452;DHT22;8843;48.838;9.324;2022-07-23T08:13:13;24.90;64.70
17452;DHT22;8843;48.838;9.324;2022-07-23T08:15:42;24.90;64.70
17452;DHT22;8843;48.838;9.324;2022-07-23T08:18:09;24.90;65.30
17452;DHT22;8843;48.838;9.324;2022-07-23T08:20:36;24.90;65.00
17452;DHT22;8843;48.838;9.324;2022-07-23T08:23:05;24.90;64.80
17452;DHT22;8843;48.838;9.324;2022-07-23T08:25:34;24.90;64.70
17452;DHT22;8843;48.838;9.324;2022-07-23T08:28:05;24.90;65.50
17452;DHT22;8843;48.838;9.324;2022-07-23T08:30:33;24.90;66.20
17452;DHT22;8843;48.838;9.324;2022-07-23T08:33:04;24.90;65.20
17452;DHT22;8843;48.838;9.324;2022-07-23T08:35:35;24.90;64.80
17452;DHT22;8843;48.838;9.324;2022-07-23T08:38:04;24.90;64.80
17452;DHT22;8843;48.838;9.324;2022-07-23T08:40:33;24.90;64.30
17452;DHT22;8843;48.838;9.324;2022-07-23T08:43:00;24.90;64.20
17452;DHT22;8843;48.838;9.324;2022-07-23T08:45:29;24.90;64.40
17452;DHT22;8843;48.838;9.324;2022-07-23T08:47:57;24.90;64.30
17452;DHT22;8843;48.838;9.324;2022-07-23T08:50:26;24.90;64.50
17452;DHT22;8843;48.838;9.324;2022-07-23T08:52:54;24.90;65.00
17452;DHT22;8843;48.838;9.324;2022-07-23T08:55:22;25.00;64.70
17452;DHT22;8843;48.838;9.324;2022-07-23T08:57:51;25.00;64.60
17452;DHT22;8843;48.838;9.324;2022-07-23T09:00:20;24.90;64.60
17452;DHT22;8843;48.838;9.324;2022-07-23T09:02:47;24.90;64.80
17452;DHT22;8843;48.838;9.324;2022-07-23T09:05:15;24.90;65.70
17452;DHT22;8843;48.838;9.324;2022-07-23T09:08:06;25.00;65.00
17452;DHT22;8843;48.838;9.324;2022-07-23T09:10:48;25.00;65.90
17452;DHT22;8843;48.838;9.324;2022-07-23T09:13:30;25.00;65.30
17452;DHT22;8843;48.838;9.324;2022-07-23T09:15:59;25.10;65.10
17452;DHT22;8843;48.838;9.324;2022-07-23T09:18:30;25.10;64.00
17452;DHT22;8843;48.838;9.324;2022-07-23T09:21:09;25.30;66.20
17452;DHT22;8843;48.838;9.324;2022-07-23T09:23:42;25.30;65.40
17452;DHT22;8843;48.838;9.324;2022-07-23T09:26:22;25.40;65.40
17452;DHT22;8843;48.838;9.324;2022-07-23T09:29:05;25.50;65.90
17452;DHT22;8843;48.838;9.324;2022-07-23T09:31:34;25.60;65.20
17452;DHT22;8843;48.838;9.324;2022-07-23T09:34:10;25.80;64.60
17452;DHT22;8843;48.838;9.324;2022-07-23T09:36:37;26.00;64.50
17452;DHT22;8843;48.838;9.324;2022-07-23T09:39:06;26.00;64.00
17452;DHT22;8843;48.838;9.324;2022-07-23T09:41:38;26.00;64.10
17452;DHT22;8843;48.838;9.324;2022-07-23T09:44:10;26.20;63.00
17452;DHT22;8843;48.838;9.324;2022-07-23T09:46:38;26.30;62.00
17452;DHT22;8843;48.838;9.324;2022-07-23T09:49:17;26.10;62.70
17452;DHT22;8843;48.838;9.324;2022-07-23T09:51:50;26.30;62.70
17452;DHT22;8843;48.838;9.324;2022-07-23T09:54:30;26.10;61.60
17452;DHT22;8843;48.838;9.324;2022-07-23T09:57:00;26.40;61.40
17452;DHT22;8843;48.838;9.324;2022-07-23T09:59:28;26.40;60.80
17452;DHT22;8843;48.838;9.324;2022-07-23T10:01:57;26.30;60.90
17452;DHT22;8843;48.838;9.324;2022-07-23T10:04:27;26.50;60.90
17452;DHT22;8843;48.838;9.324;2022-07-23T10:06:56;26.90;60.60
17452;DHT22;8843;48.838;9.324;2022-07-23T10:09:28;26.80;59.00
17452;DHT22;8843;48.838;9.324;2022-07-23T10:11:57;26.90;59.30
17452;DHT22;8843;48.838;9.324;2022-07-23T10:14:42;26.90;59.20
17452;DHT22;8843;48.838;9.324;2022-07-23T10:17:10;27.10;58.90
17452;DHT22;8843;48.838;9.324;2022-07-23T10:19:38;27.20;58.60
17452;DHT22;8843;48.838;9.324;2022-07-23T10:22:08;27.30;58.40
17452;DHT22;8843;48.838;9.324;2022-07-23T10:24:50;27.30;57.90
17452;DHT22;8843;48.838;9.324;2022-07-23T10:27:37;27.20;58.00
17452;DHT22;8843;48.838;9.324;2022-07-23T10:30:12;27.50;58.40
17452;DHT22;8843;48.838;9.324;2022-07-23T10:32:48;27.80;57.40
17452;DHT22;8843;48.838;9.324;2022-07-23T10:35:24;27.70;57.30
17452;DHT22;8843;48.838;9.324;2022-07-23T10:37:57;27.60;57.40
17452;DHT22;8843;48.838;9.324;2022-07-23T10:40:31;27.80;57.20
17452;DHT22;8843;48.838;9.324;2022-07-23T10:42:59;27.80;57.70
17452;DHT22;8843;48.838;9.324;2022-07-23T10:45:31;28.00;56.70
17452;DHT22;8843;48.838;9.324;2022-07-23T10:48:15;28.10;57.50
17452;DHT22;8843;48.838;9.324;2022-07-23T10:50:43;28.20;56.60
17452;DHT22;8843;48.838;9.324;2022-07-23T10:53:15;28.50;54.90
17452;DHT22;8843;48.838;9.324;2022-07-23T10:55:50;28.90;54.80
17452;DHT22;8843;48.838;9.324;2022-07-23T10:58:23;28.90;55.30
17452;DHT22;8843;48.838;9.324;2022-07-23T11:01:00;28.80;55.10
17452;DHT22;8843;48.838;9.324;2022-07-23T11:03:30;28.80;54.90
17452;DHT22;8843;48.838;9.324;2022-07-23T11:05:58;28.90;55.70
17452;DHT22;8843;48.838;9.324;2022-07-23T11:08:25;28.80;55.40
17452;DHT22;8843;48.838;9.324;2022-07-23T11:10:55;28.90;55.10
17452;DHT22;8843;48.838;9.324;2022-07-23T11:13:39;29.00;55.20
17452;DHT22;8843;48.838;9.324;2022-07-23T11:16:12;28.80;55.90
17452;DHT22;8843;48.838;9.324;2022-07-23T11:21:59;28.60;55.20
17452;DHT22;8843;48.838;9.324;2022-07-23T11:24:26;29.10;55.40
17452;DHT22;8843;48.838;9.324;2022-07-23T11:27:00;28.90;54.50
17452;DHT22;8843;48.838;9.324;2022-07-23T11:29:47;29.00;55.80
17452;DHT22;8843;48.838;9.324;2022-07-23T11:32:44;29.40;55.10
17452;DHT22;8843;48.838;9.324;2022-07-23T11:35:25;29.10;54.50
17452;DHT22;8843;48.838;9.324;2022-07-23T11:37:56;28.90;54.50
17452;DHT22;8843;48.838;9.324;2022-07-23T11:40:29;29.20;55.20
17452;DHT22;8843;48.838;9.324;2022-07-23T11:42:59;29.30;54.20
17452;DHT22;8843;48.838;9.324;2022-07-23T11:45:35;29.40;54.00
17452;DHT22;8843;48.838;9.324;2022-07-23T11:48:03;29.50;54.30
17452;DHT22;8843;48.838;9.324;2022-07-23T11:50:30;29.40;54.30
17452;DHT22;8843;48.838;9.324;2022-07-23T11:52:57;29.60;53.60
17452;DHT22;8843;48.838;9.324;2022-07-23T11:55:24;29.60;53.20
17452;DHT22;8843;48.838;9.324;2022-07-23T11:57:54;29.60;52.80
17452;DHT22;8843;48.838;9.324;2022-07-23T12:00:24;29.40;52.80
17452;DHT22;8843;48.838;9.324;2022-07-23T12:02:53;29.10;53.10
17452;DHT22;8843;48.838;9.324;2022-07-23T12:05:22;28.90;54.00
17452;DHT22;8843;48.838;9.324;2022-07-23T12:07:50;29.00;53.80
17452;DHT22;8843;48.838;9.324;2022-07-23T12:10:19;29.00;54.50
17452;DHT22;8843;48.838;9.324;2022-07-23T12:12:48;28.90;54.50
17452;DHT22;8843;48.838;9.324;2022-07-23T12:15:17;28.70;54.80
17452;DHT22;8843;48.838;9.324;2022-07-23T12:17:47;28.50;55.80
17452;DHT22;8843;48.838;9.324;2022-07-23T12:20:16;29.00;54.70
17452;DHT22;8843;48.838;9.324;2022-07-23T12:22:45;29.40;54.10
17452;DHT22;8843;48.838;9.324;2022-07-23T12:25:14;29.10;54.10
17452;DHT22;8843;48.838;9.324;2022-07-23T12:27:41;28.50;54.50
17452;DHT22;8843;48.838;9.324;2022-07-23T12:30:16;28.40;54.90
17452;DHT22;8843;48.838;9.324;2022-07-23T12:32:46;28.40;54.90
17452;DHT22;8843;48.838;9.324;2022-07-23T12:35:13;28.80;54.30
17452;DHT22;8843;48.838;9.324;2022-07-23T12:37:42;28.60;55.10
17452;DHT22;8843;48.838;9.324;2022-07-23T12:40:26;28.30;55.90
17452;DHT22;8843;48.838;9.324;2022-07-23T12:42:56;28.30;55.70
17452;DHT22;8843;48.838;9.324;2022-07-23T12:45:24;28.20;55.30
17452;DHT22;8843;48.838;9.324;2022-07-23T12:48:02;28.00;56.30
17452;DHT22;8843;48.838;9.324;2022-07-23T12:50:56;28.00;56.00
17452;DHT22;8843;48.838;9.324;2022-07-23T12:53:25;28.30;55.90
17452;DHT22;8843;48.838;9.324;2022-07-23T12:55:58;27.90;56.10
17452;DHT22;8843;48.838;9.324;2022-07-23T12:58:26;28.10;56.10
17452;DHT22;8843;48.838;9.324;2022-07-23T13:01:00;28.30;55.70
17452;DHT22;8843;48.838;9.324;2022-07-23T13:03:32;28.30;55.70
17452;DHT22;8843;48.838;9.324;2022-07-23T13:06:00;28.50;56.30
17452;DHT22;8843;48.838;9.324;2022-07-23T13:08:30;28.70;54.90
17452;DHT22;8843;48.838;9.324;2022-07-23T13:10:58;28.60;55.00
17452;DHT22;8843;48.838;9.324;2022-07-23T13:13:27;28.80;54.80
17452;DHT22;8843;48.838;9.324;2022-07-23T13:15:55;28.50;55.10
17452;DHT22;8843;48.838;9.324;2022-07-23T13:18:22;28.30;55.80
17452;DHT22;8843;48.838;9.324;2022-07-23T13:20:50;28.90;54.90
17452;DHT22;8843;48.838;9.324;2022-07-23T13:23:19;29.20;54.00
17452;DHT22;8843;48.838;9.324;2022-07-23T13:25:47;29.20;54.20
17452;DHT22;8843;48.838;9.324;2022-07-23T13:28:15;28.70;54.50
17452;DHT22;8843;48.838;9.324;2022-07-23T13:30:43;28.90;54.60
17452;DHT22;8843;48.838;9.324;2022-07-23T13:33:10;29.00;54.50
17452;DHT22;8843;48.838;9.324;2022-07-23T13:35:37;29.00;54.80
17452;DHT22;8843;48.838;9.324;2022-07-23T13:38:06;29.10;54.30
17452;DHT22;8843;48.838;9.324;2022-07-23T13:40:35;29.20;54.10
17452;DHT22;8843;48.838;9.324;2022-07-23T13:43:04;28.70;54.60
17452;DHT22;8843;48.838;9.324;2022-07-23T13:45:31;28.00;56.20
17452;DHT22;8843;48.838;9.324;2022-07-23T13:47:58;27.90;56.60
17452;DHT22;8843;48.838;9.324;2022-07-23T13:50:25;28.60;54.60
17452;DHT22;8843;48.838;9.324;2022-07-23T13:52:52;28.80;54.10
17452;DHT22;8843;48.838;9.324;2022-07-23T13:55:20;28.90;54.30
17452;DHT22;8843;48.838;9.324;2022-07-23T13:57:47;29.00;54.00
17452;DHT22;8843;48.838;9.324;2022-07-23T14:00:14;29.40;54.10
17452;DHT22;8843;48.838;9.324;2022-07-23T14:02:41;29.20;54.30
17452;DHT22;8843;48.838;9.324;2022-07-23T14:05:10;29.50;54.20
17452;DHT22;8843;48.838;9.324;2022-07-23T14:07:38;29.70;53.70
17452;DHT22;8843;48.838;9.324;2022-07-23T14:10:07;29.70;54.00
17452;DHT22;8843;48.838;9.324;2022-07-23T14:12:36;29.90;53.50
17452;DHT22;8843;48.838;9.324;2022-07-23T14:15:04;29.70;53.60
17452;DHT22;8843;48.838;9.324;2022-07-23T14:17:31;29.70;53.00
17452;DHT22;8843;48.838;9.324;2022-07-23T14:19:59;29.60;53.50
17452;DHT22;8843;48.838;9.324;2022-07-23T14:22:26;29.50;53.00
17452;DHT22;8843;48.838;9.324;2022-07-23T14:24:52;29.50;52.80
17452;DHT22;8843;48.838;9.324;2022-07-23T14:27:19;29.60;52.80
17452;DHT22;8843;48.838;9.324;2022-07-23T14:29:48;29.50;52.80
17452;DHT22;8843;48.838;9.324;2022-07-23T14:32:14;29.50;53.10
17452;DHT22;8843;48.838;9.324;2022-07-23T14:34:41;29.60;53.20
17452;DHT22;8843;48.838;9.324;2022-07-23T14:37:09;29.60;53.00
17452;DHT22;8843;48.838;9.324;2022-07-23T14:39:37;29.70;52.50
17452;DHT22;8843;48.838;9.324;2022-07-23T14:42:05;29.60;52.00
17452;DHT22;8843;48.838;9.324;2022-07-23T14:44:32;29.30;51.80
17452;DHT22;8843;48.838;9.324;2022-07-23T14:47:02;29.50;52.20
17452;DHT22;8843;48.838;9.324;2022-07-23T14:49:29;29.50;52.10
17452;DHT22;8843;48.838;9.324;2022-07-23T14:51:56;29.50;52.60
17452;DHT22;8843;48.838;9.324;2022-07-23T14:54:24;29.50;51.80
17452;DHT22;8843;48.838;9.324;2022-07-23T14:56:52;29.60;50.80
17452;DHT22;8843;48.838;9.324;2022-07-23T14:59:19;29.50;50.60
17452;DHT22;8843;48.838;9.324;2022-07-23T15:01:46;29.00;52.30
17452;DHT22;8843;48.838;9.324;2022-07-23T15:04:14;28.80;53.60
17452;DHT22;8843;48.838;9.324;2022-07-23T15:06:42;28.20;55.20
17452;DHT22;8843;48.838;9.324;2022-07-23T15:09:09;28.00;55.20
17452;DHT22;8843;48.838;9.324;2022-07-23T15:11:36;27.70;56.50
17452;DHT22;8843;48.838;9.324;2022-07-23T15:14:03;27.90;54.80
17452;DHT22;8843;48.838;9.324;2022-07-23T15:16:30;27.60;56.70
17452;DHT22;8843;48.838;9.324;2022-07-23T15:18:58;27.90;55.60
17452;DHT22;8843;48.838;9.324;2022-07-23T15:21:26;27.70;56.20
17452;DHT22;8843;48.838;9.324;2022-07-23T15:23:54;27.70;55.90
17452;DHT22;8843;48.838;9.324;2022-07-23T15:26:24;27.60;56.80
17452;DHT22;8843;48.838;9.324;2022-07-23T15:28:51;27.40;57.60
17452;DHT22;8843;48.838;9.324;2022-07-23T15:31:18;27.30;57.00
17452;DHT22;8843;48.838;9.324;2022-07-23T15:33:45;27.50;56.80
17452;DHT22;8843;48.838;9.324;2022-07-23T15:36:12;27.30;57.60
17452;DHT22;8843;48.838;9.324;2022-07-23T15:38:40;27.10;58.30
17452;DHT22;8843;48.838;9.324;2022-07-23T15:41:07;27.00;58.70
17452;DHT22;8843;48.838;9.324;2022-07-23T15:43:34;27.10;57.60
17452;DHT22;8843;48.838;9.324;2022-07-23T15:46:01;27.10;58.30
17452;DHT22;8843;48.838;9.324;2022-07-23T15:48:28;27.10;57.90
17452;DHT22;8843;48.838;9.324;2022-07-23T15:50:55;27.00;57.60
17452;DHT22;8843;48.838;9.324;2022-07-23T15:53:22;27.00;58.00
17452;DHT22;8843;48.838;9.324;2022-07-23T15:55:51;27.00;58.30
17452;DHT22;8843;48.838;9.324;2022-07-23T15:58:17;27.10;57.90